createdAt,value
2024-04-24T00:00:33.380Z,98151.06
2024-04-24T00:02:55.830Z,98139.40
2024-04-24T00:05:03.008Z,98139.73
2024-04-24T00:07:05.593Z,98137.73
2024-04-24T00:09:09.477Z,98136.54
2024-04-24T00:11:24.829Z,98133.23
2024-04-24T00:13:27.310Z,98130.23
2024-04-24T00:15:29.988Z,98124.28
2024-04-24T00:17:32.622Z,98125.61
2024-04-24T00:19:35.818Z,98122.61
2024-04-24T00:21:38.206Z,98118.96
2024-04-24T00:23:40.719Z,98117.48
2024-04-24T00:25:43.183Z,98114.06
2024-04-24T00:27:45.675Z,98113.31
2024-04-24T00:29:48.177Z,98112.08
2024-04-24T00:31:51.710Z,98108.48
2024-04-24T00:33:54.306Z,98109.70
2024-04-24T00:35:56.766Z,98107.83
2024-04-24T00:37:59.282Z,98102.63
2024-04-24T00:40:01.812Z,98103.42
2024-04-24T00:42:04.324Z,98104.63
2024-04-24T00:44:06.912Z,98101.49
2024-04-24T00:46:10.634Z,98097.95
2024-04-24T00:48:13.847Z,98095.88
2024-04-24T00:50:17.228Z,98098.23
2024-04-24T00:52:19.843Z,98100.92
2024-04-24T00:54:22.238Z,98103.36
2024-04-24T00:56:25.244Z,98102.00
2024-04-24T00:58:27.952Z,98101.36
2024-04-24T01:00:30.549Z,98102.49
2024-04-24T01:02:32.957Z,98097.67
2024-04-24T01:04:35.490Z,98098.35
2024-04-24T01:06:37.915Z,98086.80
2024-04-24T01:08:40.663Z,98087.04
2024-04-24T01:10:43.224Z,98081.83
2024-04-24T01:12:46.395Z,98076.60
2024-04-24T01:14:48.882Z,98078.73
2024-04-24T01:16:51.802Z,98077.48
2024-04-24T01:19:02.542Z,98072.85
2024-04-24T01:21:08.082Z,98067.60
2024-04-24T01:24:04.604Z,98064.34
2024-04-24T01:26:31.560Z,98060.11
2024-04-24T01:28:48.093Z,98057.06
2024-04-24T01:30:50.622Z,98052.20
2024-04-24T01:32:53.101Z,98050.70
2024-04-24T01:34:55.850Z,98048.46
2024-04-24T01:36:58.624Z,98046.58
2024-04-24T01:39:01.212Z,98038.94
2024-04-24T01:41:04.037Z,98037.69
2024-04-24T01:43:06.574Z,98033.92
2024-04-24T01:45:09.629Z,98033.75
2024-04-24T01:47:12.439Z,98033.05
2024-04-24T01:49:14.967Z,98032.62
2024-04-24T01:51:17.615Z,98030.62
2024-04-24T01:53:20.442Z,98031.67
2024-04-24T01:55:22.939Z,98029.02
2024-04-24T01:57:25.397Z,98030.14
2024-04-24T01:59:27.783Z,98033.66
2024-04-24T02:01:30.358Z,98042.30
2024-04-24T02:03:32.829Z,98045.45
2024-04-24T02:05:35.296Z,98040.37
2024-04-24T02:07:37.867Z,98045.61
2024-04-24T02:09:40.229Z,98052.31
2024-04-24T02:11:42.698Z,98045.98
2024-04-24T02:13:45.993Z,98047.13
2024-04-24T02:15:48.476Z,98042.70
2024-04-24T02:17:51.094Z,98042.07
2024-04-24T02:19:53.706Z,98038.58
2024-04-24T02:21:56.157Z,98041.18
2024-04-24T02:24:01.135Z,98041.14
2024-04-24T02:26:10.041Z,98038.82
2024-04-24T02:28:12.661Z,98036.91
2024-04-24T02:30:15.136Z,98031.39
2024-04-24T02:32:17.601Z,98025.05
2024-04-24T02:34:20.119Z,98021.69
2024-04-24T02:36:22.544Z,98024.30
2024-04-24T02:38:25.114Z,98025.21
2024-04-24T02:40:27.522Z,98024.16
2024-04-24T02:42:29.924Z,98026.67
2024-04-24T02:44:32.333Z,98026.34
2024-04-24T02:46:34.713Z,98024.92
2024-04-24T02:48:37.432Z,98020.65
2024-04-24T02:50:40.260Z,98015.81
2024-04-24T02:52:42.794Z,98014.92
2024-04-24T02:54:45.227Z,98010.30
2024-04-24T02:56:50.711Z,98008.24
2024-04-24T02:58:54.590Z,98008.09
2024-04-24T03:00:57.129Z,98001.80
2024-04-24T03:02:59.915Z,97999.98
2024-04-24T03:05:02.556Z,97997.42
2024-04-24T03:07:05.091Z,97995.48
2024-04-24T03:09:07.584Z,97993.45
2024-04-24T03:11:10.111Z,97989.46
2024-04-24T03:13:12.530Z,97985.73
2024-04-24T03:15:15.029Z,97981.02
2024-04-24T03:17:17.767Z,97979.51
2024-04-24T03:19:20.485Z,97976.70
2024-04-24T03:21:24.362Z,97973.42
2024-04-24T03:23:27.022Z,97969.53
2024-04-24T03:25:29.489Z,97965.66
2024-04-24T03:27:33.476Z,97969.45
2024-04-24T03:29:36.000Z,97975.05
2024-04-24T03:31:38.606Z,97979.21
2024-04-24T03:33:41.043Z,97977.72
2024-04-24T03:35:43.521Z,97980.05
2024-04-24T03:37:46.574Z,97976.77
2024-04-24T03:39:49.269Z,97975.79
2024-04-24T03:41:51.677Z,97972.16
2024-04-24T03:43:54.807Z,97971.90
2024-04-24T03:45:57.913Z,97966.73
2024-04-24T03:48:00.589Z,97962.64
2024-04-24T03:50:03.414Z,97968.73
2024-04-24T03:52:06.072Z,97968.91
2024-04-24T03:54:10.995Z,97967.42
2024-04-24T03:56:13.484Z,97968.92
2024-04-24T03:58:16.510Z,97967.41
2024-04-24T04:00:19.051Z,97969.85
2024-04-24T04:02:21.550Z,97969.99
2024-04-24T04:04:24.093Z,97972.95
2024-04-24T04:06:26.712Z,97973.40
2024-04-24T04:08:30.875Z,97983.29
2024-04-24T04:10:33.725Z,97982.23
2024-04-24T04:12:36.113Z,97978.88
2024-04-24T04:14:38.542Z,97983.05
2024-04-24T04:16:41.019Z,97977.30
2024-04-24T04:18:43.400Z,97981.21
2024-04-24T04:20:46.093Z,97977.42
2024-04-24T04:22:48.630Z,97975.85
2024-04-24T04:24:51.212Z,97975.96
2024-04-24T04:26:53.606Z,97973.06
2024-04-24T04:28:56.144Z,97969.80
2024-04-24T04:30:58.705Z,97965.48
2024-04-24T04:33:01.235Z,97965.18
2024-04-24T04:35:03.783Z,97962.53
2024-04-24T04:37:06.186Z,97962.54
2024-04-24T04:39:08.690Z,97964.67
2024-04-24T04:41:11.146Z,97966.13
2024-04-24T04:43:13.626Z,97962.60
2024-04-24T04:45:16.087Z,97956.08
2024-04-24T04:47:18.561Z,97958.02
2024-04-24T04:49:21.091Z,97955.61
2024-04-24T04:51:23.612Z,97955.33
2024-04-24T04:53:26.143Z,97957.65
2024-04-24T04:55:28.624Z,97955.96
2024-04-24T04:57:31.120Z,97955.72
2024-04-24T04:59:33.815Z,97953.83
2024-04-24T05:01:36.415Z,97951.71
2024-04-24T05:03:42.163Z,97951.39
2024-04-24T05:05:45.119Z,97948.90
2024-04-24T05:07:47.618Z,97950.55
2024-04-24T05:09:50.055Z,97947.23
2024-04-24T05:11:52.563Z,97949.79
2024-04-24T05:13:55.228Z,97947.79
2024-04-24T05:15:57.705Z,97943.85
2024-04-24T05:18:01.351Z,97947.23
2024-04-24T05:20:04.286Z,97947.77
2024-04-24T05:22:07.067Z,97951.59
2024-04-24T05:24:09.558Z,97948.73
2024-04-24T05:26:30.366Z,97949.29
2024-04-24T05:28:53.185Z,97950.69
2024-04-24T05:30:55.640Z,97946.63
2024-04-24T05:32:58.181Z,97945.56
2024-04-24T05:35:01.177Z,97946.28
2024-04-24T05:37:04.160Z,97943.53
2024-04-24T05:39:06.632Z,97944.71
2024-04-24T05:41:09.034Z,97941.34
2024-04-24T05:43:13.222Z,97939.48
2024-04-24T05:45:17.166Z,97936.04
2024-04-24T05:47:20.363Z,97938.54
2024-04-24T05:49:22.801Z,97939.71
2024-04-24T05:51:25.140Z,97934.31
2024-04-24T05:53:27.556Z,97934.13
2024-04-24T05:55:29.958Z,97930.77
2024-04-24T05:57:32.415Z,97929.08
2024-04-24T05:59:34.944Z,97930.59
2024-04-24T06:01:37.433Z,97931.81
2024-04-24T06:03:39.775Z,97931.64
2024-04-24T06:05:42.186Z,97938.23
2024-04-24T06:07:45.268Z,97938.15
2024-04-24T06:09:47.666Z,97937.56
2024-04-24T06:11:50.223Z,97936.23
2024-04-24T06:13:52.721Z,97941.29
2024-04-24T06:15:55.165Z,97940.41
2024-04-24T06:17:58.240Z,97940.25
2024-04-24T06:20:00.811Z,97940.51
2024-04-24T06:22:04.897Z,97940.17
2024-04-24T06:24:10.516Z,97941.55
2024-04-24T06:26:14.543Z,97940.30
2024-04-24T06:28:17.037Z,97943.36
2024-04-24T06:30:19.535Z,97942.40
2024-04-24T06:32:22.193Z,97938.77
2024-04-24T06:34:24.660Z,97936.38
2024-04-24T06:36:28.006Z,97932.98
2024-04-24T06:38:31.282Z,97929.38
2024-04-24T06:40:33.731Z,97927.00
2024-04-24T06:42:36.208Z,97928.26
2024-04-24T06:44:38.711Z,97928.61
2024-04-24T06:46:41.532Z,97930.82
2024-04-24T06:48:43.999Z,97927.24
2024-04-24T06:50:46.418Z,97927.77
2024-04-24T06:52:49.044Z,97927.30
2024-04-24T06:54:51.648Z,97927.84
2024-04-24T06:56:54.351Z,97922.11
2024-04-24T06:58:57.332Z,97925.58
2024-04-24T07:01:02.498Z,97923.77
2024-04-24T07:03:05.202Z,97922.84
2024-04-24T07:05:07.922Z,97920.13
2024-04-24T07:07:10.441Z,97921.25
2024-04-24T07:09:12.964Z,97923.27
2024-04-24T07:11:15.424Z,97924.32
2024-04-24T07:13:18.613Z,97922.47
2024-04-24T07:15:21.031Z,97921.29
2024-04-24T07:17:23.938Z,97920.27
2024-04-24T07:19:26.993Z,97915.30
2024-04-24T07:21:29.478Z,97912.35
2024-04-24T07:23:31.978Z,97910.15
2024-04-24T07:25:35.299Z,97908.45
2024-04-24T07:27:37.806Z,97906.57
2024-04-24T07:29:40.236Z,97907.75
2024-04-24T07:31:42.901Z,97907.77
2024-04-24T07:33:45.427Z,97901.40
2024-04-24T07:35:48.346Z,97898.73
2024-04-24T07:37:53.017Z,97897.25
2024-04-24T07:39:55.687Z,97898.79
2024-04-24T07:41:58.055Z,97896.53
2024-04-24T07:44:00.537Z,97898.11
2024-04-24T07:46:04.179Z,97893.34
2024-04-24T07:48:07.374Z,97895.70
2024-04-24T07:50:09.943Z,97895.84
2024-04-24T07:52:12.545Z,97893.66
2024-04-24T07:54:15.036Z,97893.33
2024-04-24T07:56:17.612Z,97893.83
2024-04-24T07:58:20.352Z,97897.19
2024-04-24T08:00:23.021Z,97895.64
2024-04-24T08:02:25.665Z,97894.43
2024-04-24T08:04:28.808Z,97895.15
2024-04-24T08:06:31.249Z,97893.61
2024-04-24T08:08:37.813Z,97898.77
2024-04-24T08:10:40.319Z,97898.85
2024-04-24T08:12:42.772Z,97900.00
2024-04-24T08:14:45.112Z,97900.57
2024-04-24T08:16:47.553Z,97898.00
2024-04-24T08:18:51.868Z,97899.95
2024-04-24T08:20:55.190Z,97896.13
2024-04-24T08:22:57.798Z,97896.07
2024-04-24T08:25:00.311Z,97899.75
2024-04-24T08:27:03.323Z,97900.48
2024-04-24T08:29:05.735Z,97900.92
2024-04-24T08:31:09.310Z,97905.75
2024-04-24T08:33:12.011Z,97905.27
2024-04-24T08:35:14.512Z,97905.14
2024-04-24T08:37:17.017Z,97908.45
2024-04-24T08:39:19.402Z,97907.67
2024-04-24T08:41:22.350Z,97904.38
2024-04-24T08:43:24.854Z,97900.72
2024-04-24T08:45:28.084Z,97900.64
2024-04-24T08:47:31.881Z,97899.77
2024-04-24T08:49:36.547Z,97902.31
2024-04-24T08:51:42.380Z,97901.89
2024-04-24T08:54:02.287Z,97900.77
2024-04-24T08:56:06.235Z,97902.12
2024-04-24T08:58:10.033Z,97901.32
2024-04-24T09:00:14.018Z,97897.38
2024-04-24T09:02:20.310Z,97895.52
2024-04-24T09:04:23.897Z,97896.20
2024-04-24T09:06:29.164Z,97892.79
2024-04-24T09:08:35.668Z,97892.14
2024-04-24T09:10:39.066Z,97891.53
2024-04-24T09:12:41.910Z,97892.42
2024-04-24T09:14:45.783Z,97890.10
2024-04-24T09:16:48.946Z,97893.75
2024-04-24T09:19:02.187Z,97893.23
2024-04-24T09:21:05.930Z,97890.06
2024-04-24T09:23:12.907Z,97889.33
2024-04-24T09:25:15.905Z,97890.70
2024-04-24T09:27:18.490Z,97885.58
2024-04-24T09:29:20.923Z,97885.84
2024-04-24T09:31:24.032Z,97880.12
2024-04-24T09:33:26.730Z,97875.59
2024-04-24T09:35:29.598Z,97876.27
2024-04-24T09:37:32.513Z,97873.42
2024-04-24T09:39:36.364Z,97870.80
2024-04-24T09:41:43.204Z,97867.54
2024-04-24T09:43:46.719Z,97868.34
2024-04-24T09:45:49.580Z,97863.95
2024-04-24T09:47:52.075Z,97871.93
2024-04-24T09:49:55.774Z,97874.36
2024-04-24T09:52:01.130Z,97869.36
2024-04-24T09:54:03.621Z,97873.72
2024-04-24T09:56:21.450Z,97874.27
2024-04-24T09:58:27.008Z,97874.98
2024-04-24T10:00:32.626Z,97873.42
2024-04-24T10:02:40.473Z,97866.00
2024-04-24T10:04:48.629Z,97862.50
2024-04-24T10:06:52.690Z,97859.31
2024-04-24T10:08:57.753Z,97859.39
2024-04-24T10:11:04.068Z,97848.04
2024-04-24T10:13:07.675Z,97844.52
2024-04-24T10:15:12.281Z,97838.36
2024-04-24T10:17:17.284Z,97832.16
2024-04-24T10:19:22.069Z,97821.84
2024-04-24T10:21:24.787Z,97816.44
2024-04-24T10:23:28.664Z,97814.66
2024-04-24T10:25:33.504Z,97813.67
2024-04-24T10:27:40.323Z,97815.91
2024-04-24T10:29:45.821Z,97813.14
2024-04-24T10:31:49.536Z,97809.59
2024-04-24T10:33:52.462Z,97800.70
2024-04-24T10:35:56.797Z,97799.23
2024-04-24T10:37:59.359Z,97801.75
2024-04-24T10:40:01.899Z,97798.95
2024-04-24T10:42:04.478Z,97798.25
2024-04-24T10:44:08.818Z,97795.18
2024-04-24T10:46:22.483Z,97794.23
2024-04-24T10:48:43.426Z,97790.08
2024-04-24T10:50:50.925Z,97781.16
2024-04-24T10:52:55.677Z,97779.64
2024-04-24T10:55:10.683Z,97779.37
2024-04-24T10:57:15.107Z,97773.39
2024-04-24T10:59:18.012Z,97767.95
2024-04-24T11:01:29.291Z,97767.94
2024-04-24T11:03:38.080Z,97766.23
2024-04-24T11:05:43.211Z,97766.41
2024-04-24T11:07:57.825Z,97764.63
2024-04-24T11:10:00.379Z,97760.58
2024-04-24T11:12:05.442Z,97760.79
2024-04-24T11:14:11.055Z,97763.84
2024-04-24T11:16:15.983Z,97760.91
2024-04-24T11:18:18.579Z,97764.48
2024-04-24T11:20:23.213Z,97759.55
2024-04-24T11:22:29.443Z,97760.84
2024-04-24T11:24:32.394Z,97760.46
2024-04-24T11:26:36.709Z,97758.39
2024-04-24T11:28:39.458Z,97763.83
2024-04-24T11:30:44.240Z,97763.71
2024-04-24T11:32:52.571Z,97765.95
2024-04-24T11:34:55.299Z,97765.17
2024-04-24T11:36:57.957Z,97760.64
2024-04-24T11:39:01.264Z,97760.70
2024-04-24T11:41:04.249Z,97756.36
2024-04-24T11:43:07.030Z,97756.38
2024-04-24T11:45:09.704Z,97752.52
2024-04-24T11:47:12.310Z,97748.83
2024-04-24T11:49:18.989Z,97750.58
2024-04-24T11:51:23.459Z,97751.27
2024-04-24T11:53:26.118Z,97745.40
2024-04-24T11:55:28.690Z,97744.46
2024-04-24T11:57:38.005Z,97742.17
2024-04-24T11:59:49.683Z,97743.84
2024-04-24T12:01:52.631Z,97736.19
2024-04-24T12:04:02.199Z,97737.58
2024-04-24T12:06:06.060Z,97743.78
2024-04-24T12:08:08.933Z,97745.92
2024-04-24T12:10:11.584Z,97760.23
2024-04-24T12:12:14.440Z,97758.42
2024-04-24T12:14:18.074Z,97769.70
2024-04-24T12:16:21.168Z,97773.45
2024-04-24T12:18:24.119Z,97774.27
2024-04-24T12:20:26.890Z,97766.39
2024-04-24T12:22:29.392Z,97763.66
2024-04-24T12:24:33.811Z,97761.12
2024-04-24T12:26:36.232Z,97755.32
2024-04-24T12:28:38.690Z,97753.10
2024-04-24T12:30:41.552Z,97754.95
2024-04-24T12:32:44.518Z,97751.48
2024-04-24T12:34:51.456Z,97747.63
2024-04-24T12:36:57.574Z,97745.28
2024-04-24T12:39:00.033Z,97739.17
2024-04-24T12:41:02.852Z,97738.73
2024-04-24T12:43:05.301Z,97737.02
2024-04-24T12:45:09.582Z,97738.21
2024-04-24T12:47:13.633Z,97735.02
2024-04-24T12:49:16.084Z,97734.27
2024-04-24T12:51:18.513Z,97734.95
2024-04-24T12:53:21.021Z,97732.49
2024-04-24T12:55:23.550Z,97724.34
2024-04-24T12:57:26.047Z,97724.78
2024-04-24T12:59:28.626Z,97724.32
2024-04-24T13:01:31.195Z,97720.11
2024-04-24T13:03:34.447Z,97721.23
2024-04-24T13:05:37.177Z,97718.42
2024-04-24T13:07:43.379Z,97713.91
2024-04-24T13:09:46.638Z,97712.95
2024-04-24T13:11:49.432Z,97708.48
2024-04-24T13:13:51.909Z,97702.79
2024-04-24T13:15:54.387Z,97700.61
2024-04-24T13:17:57.291Z,97701.93
2024-04-24T13:20:02.219Z,97702.66
2024-04-24T13:22:07.885Z,97700.58
2024-04-24T13:24:11.810Z,97703.91
2024-04-24T13:26:14.281Z,97700.56
2024-04-24T13:28:16.956Z,97706.50
2024-04-24T13:30:19.995Z,97706.52
2024-04-24T13:32:22.684Z,97707.33
2024-04-24T13:34:25.430Z,97708.24
2024-04-24T13:36:30.054Z,97705.52
2024-04-24T13:38:35.231Z,97710.77
2024-04-24T13:40:37.983Z,97706.85
2024-04-24T13:42:40.685Z,97707.50
2024-04-24T13:44:44.482Z,97709.39
2024-04-24T13:46:47.178Z,97708.24
2024-04-24T13:48:49.887Z,97710.01
2024-04-24T13:50:52.541Z,97711.09
2024-04-24T13:52:55.183Z,97716.15
2024-04-24T13:54:57.704Z,97711.36
2024-04-24T13:57:00.835Z,97716.15
2024-04-24T13:59:03.476Z,97716.64
2024-04-24T14:01:07.919Z,97720.02
2024-04-24T14:03:10.653Z,97722.88
2024-04-24T14:05:13.644Z,97721.05
2024-04-24T14:07:17.629Z,97717.73
2024-04-24T14:09:21.962Z,97720.09
2024-04-24T14:11:26.465Z,97718.05
2024-04-24T14:13:29.143Z,97714.16
2024-04-24T14:15:31.613Z,97712.39
2024-04-24T14:17:36.906Z,97714.64
2024-04-24T14:19:39.856Z,97712.55
2024-04-24T14:21:43.180Z,97709.67
2024-04-24T14:23:45.939Z,97709.21
2024-04-24T14:25:48.955Z,97713.64
2024-04-24T14:27:51.667Z,97714.69
2024-04-24T14:29:54.726Z,97714.77
2024-04-24T14:31:57.652Z,97712.23
2024-04-24T14:34:00.211Z,97715.10
2024-04-24T14:36:03.131Z,97713.89
2024-04-24T14:38:05.764Z,97708.80
2024-04-24T14:40:08.822Z,97709.16
2024-04-24T14:42:11.222Z,97709.61
2024-04-24T14:44:13.808Z,97706.33
2024-04-24T14:46:16.325Z,97701.05
2024-04-24T14:48:19.076Z,97695.88
2024-04-24T14:50:21.617Z,97692.36
2024-04-24T14:52:24.257Z,97695.18
2024-04-24T14:54:27.280Z,97692.39
2024-04-24T14:56:30.189Z,97692.07
2024-04-24T14:58:32.766Z,97687.77
2024-04-24T15:00:35.127Z,97687.17
2024-04-24T15:02:37.774Z,97676.55
2024-04-24T15:04:40.344Z,97676.34
2024-04-24T15:06:59.577Z,97673.94
2024-04-24T15:09:02.213Z,97669.86
2024-04-24T15:11:05.056Z,97675.48
2024-04-24T15:13:07.712Z,97672.80
2024-04-24T15:15:10.388Z,97667.25
2024-04-24T15:17:13.245Z,97669.34
2024-04-24T15:19:16.082Z,97669.16
2024-04-24T15:21:18.655Z,97667.44
2024-04-24T15:23:21.690Z,97663.48
2024-04-24T15:25:25.191Z,97666.21
2024-04-24T15:27:28.033Z,97657.44
2024-04-24T15:29:30.629Z,97655.92
2024-04-24T15:31:33.175Z,97658.48
2024-04-24T15:33:38.847Z,97659.03
2024-04-24T15:35:45.633Z,97658.98
2024-04-24T15:37:48.122Z,97656.48
2024-04-24T15:39:50.683Z,97649.04
2024-04-24T15:41:56.034Z,97648.17
2024-04-24T15:43:58.481Z,97647.13
2024-04-24T15:46:00.949Z,97651.75
2024-04-24T15:48:03.655Z,97649.53
2024-04-24T15:50:06.674Z,97649.15
2024-04-24T15:52:10.304Z,97641.98
2024-04-24T15:54:12.890Z,97633.66
2024-04-24T15:56:18.594Z,97629.98
2024-04-24T15:58:22.638Z,97625.48
2024-04-24T16:00:28.524Z,97621.55
2024-04-24T16:02:31.139Z,97617.71
2024-04-24T16:04:34.282Z,97616.42
2024-04-24T16:06:36.960Z,97613.72
2024-04-24T16:08:39.631Z,97610.54
2024-04-24T16:10:42.520Z,97607.39
2024-04-24T16:12:45.332Z,97611.45
2024-04-24T16:14:47.793Z,97614.11
2024-04-24T16:16:50.309Z,97623.38
2024-04-24T16:18:52.895Z,97624.81
2024-04-24T16:20:57.196Z,97626.30
2024-04-24T16:23:00.781Z,97628.27
2024-04-24T16:25:03.382Z,97630.71
2024-04-24T16:27:07.478Z,97628.38
2024-04-24T16:29:10.773Z,97624.29
2024-04-24T16:31:13.481Z,97628.81
2024-04-24T16:33:16.278Z,97631.85
2024-04-24T16:35:19.579Z,97634.02
2024-04-24T16:37:22.103Z,97631.14
2024-04-24T16:39:25.225Z,97636.98
2024-04-24T16:41:28.971Z,97637.68
2024-04-24T16:43:34.946Z,97639.03
2024-04-24T16:45:38.719Z,97634.50
2024-04-24T16:47:42.546Z,97637.48
2024-04-24T16:49:46.434Z,97634.75
2024-04-24T16:51:51.098Z,97634.31
2024-04-24T16:53:55.822Z,97631.86
2024-04-24T16:55:59.651Z,97636.68
2024-04-24T16:58:03.672Z,97634.77
2024-04-24T17:00:08.826Z,97633.14
2024-04-24T17:02:16.727Z,97632.93
2024-04-24T17:04:20.625Z,97629.05
2024-04-24T17:06:28.865Z,97626.91
2024-04-24T17:08:32.969Z,97626.36
2024-04-24T17:10:38.869Z,97628.44
2024-04-24T17:12:42.880Z,97625.85
2024-04-24T17:14:48.961Z,97620.94
2024-04-24T17:16:51.392Z,97625.38
2024-04-24T17:18:58.310Z,97620.27
2024-04-24T17:21:00.970Z,97620.27
2024-04-24T17:23:05.047Z,97624.58
2024-04-24T17:25:08.917Z,97625.45
2024-04-24T17:27:14.328Z,97628.61
2024-04-24T17:29:19.472Z,97628.48
2024-04-24T17:31:24.856Z,97633.52
2024-04-24T17:33:29.187Z,97637.09
2024-04-24T17:35:32.758Z,97636.92
2024-04-24T17:37:36.455Z,97638.46
2024-04-24T17:39:39.226Z,97636.11
2024-04-24T17:41:43.405Z,97637.73
2024-04-24T17:43:45.859Z,97638.94
2024-04-24T17:45:52.086Z,97636.40
2024-04-24T17:47:54.710Z,97632.98
2024-04-24T17:49:57.245Z,97634.34
2024-04-24T17:51:59.818Z,97638.13
2024-04-24T17:54:02.996Z,97644.30
2024-04-24T17:56:05.589Z,97643.85
2024-04-24T17:58:09.597Z,97646.73
2024-04-24T18:00:13.718Z,97647.94
2024-04-24T18:02:24.038Z,97653.84
2024-04-24T18:04:31.328Z,97659.13
2024-04-24T18:06:36.444Z,97661.85
2024-04-24T18:08:41.587Z,97662.46
2024-04-24T18:10:47.402Z,97670.77
2024-04-24T18:12:53.433Z,97672.76
2024-04-24T18:15:00.616Z,97670.08
2024-04-24T18:17:04.862Z,97672.77
2024-04-24T18:19:09.411Z,97675.09
2024-04-24T18:21:13.914Z,97672.88
2024-04-24T18:23:18.512Z,97674.09
2024-04-24T18:25:22.299Z,97670.08
2024-04-24T18:27:27.264Z,97670.34
2024-04-24T18:29:32.398Z,97670.61
2024-04-24T18:31:43.177Z,97671.23
2024-04-24T18:33:49.458Z,97670.13
2024-04-24T18:35:55.219Z,97677.73
2024-04-24T18:37:57.854Z,97675.23
2024-04-24T18:40:07.841Z,97675.66
2024-04-24T18:42:14.291Z,97679.42
2024-04-24T18:44:20.662Z,97680.05
2024-04-24T18:46:24.637Z,97683.52
2024-04-24T18:48:31.461Z,97683.60
2024-04-24T18:50:37.593Z,97686.14
2024-04-24T18:52:42.249Z,97690.03
2024-04-24T18:54:45.824Z,97691.80
2024-04-24T18:56:49.021Z,97692.66
2024-04-24T18:58:51.391Z,97691.84
2024-04-24T19:00:57.236Z,97691.54
2024-04-24T19:03:00.198Z,97688.86
2024-04-24T19:05:04.230Z,97693.09
2024-04-24T19:07:10.301Z,97693.15
2024-04-24T19:09:12.913Z,97691.27
2024-04-24T19:11:16.812Z,97692.52
2024-04-24T19:13:20.089Z,97700.39
2024-04-24T19:15:23.912Z,97697.48
2024-04-24T19:17:26.632Z,97696.50
2024-04-24T19:19:33.268Z,97695.45
2024-04-24T19:21:38.942Z,97696.50
2024-04-24T19:23:42.887Z,97698.23
2024-04-24T19:25:46.919Z,97702.39
2024-04-24T19:27:51.671Z,97699.75
2024-04-24T19:29:55.788Z,97699.02
2024-04-24T19:32:01.953Z,97694.19
2024-04-24T19:34:09.877Z,97697.55
2024-04-24T19:36:16.761Z,97696.30
2024-04-24T19:38:23.972Z,97698.73
2024-04-24T19:40:31.520Z,97701.69
2024-04-24T19:42:35.829Z,97698.83
2024-04-24T19:44:40.141Z,97699.29
2024-04-24T19:46:44.161Z,97701.38
2024-04-24T19:48:54.081Z,97698.86
2024-04-24T19:50:59.238Z,97697.58
2024-04-24T19:53:03.900Z,97700.61
2024-04-24T19:55:07.092Z,97704.61
2024-04-24T19:57:12.280Z,97706.70
2024-04-24T19:59:14.986Z,97707.05
2024-04-24T20:01:20.898Z,97707.73
2024-04-24T20:03:26.147Z,97704.70
2024-04-24T20:05:33.071Z,97706.41
2024-04-24T20:07:37.869Z,97706.63
2024-04-24T20:09:41.964Z,97712.34
2024-04-24T20:11:45.325Z,97714.16
2024-04-24T20:13:48.220Z,97710.57
2024-04-24T20:15:53.133Z,97713.09
2024-04-24T20:17:57.839Z,97716.77
2024-04-24T20:20:01.236Z,97714.21
2024-04-24T20:22:03.871Z,97714.48
2024-04-24T20:24:06.660Z,97717.39
2024-04-24T20:26:18.351Z,97718.02
2024-04-24T20:28:20.972Z,97713.79
2024-04-24T20:30:23.396Z,97715.89
2024-04-24T20:32:26.908Z,97716.19
2024-04-24T20:34:29.539Z,97712.70
2024-04-24T20:36:32.114Z,97713.49
2024-04-24T20:38:34.679Z,97710.95
2024-04-24T20:40:37.137Z,97712.05
2024-04-24T20:42:40.157Z,97713.64
2024-04-24T20:44:42.629Z,97715.22
2024-04-24T20:46:45.033Z,97709.42
2024-04-24T20:48:47.630Z,97708.40
2024-04-24T20:50:50.059Z,97711.38
2024-04-24T20:52:52.472Z,97710.20
2024-04-24T20:54:55.384Z,97712.64
2024-04-24T20:56:57.822Z,97712.02
2024-04-24T20:59:00.327Z,97714.40
2024-04-24T21:01:06.322Z,97715.55
2024-04-24T21:03:09.300Z,97716.05
2024-04-24T21:05:12.994Z,97716.67
2024-04-24T21:07:16.866Z,97711.60
2024-04-24T21:09:19.828Z,97713.95
2024-04-24T21:11:24.712Z,97705.09
2024-04-24T21:13:27.719Z,97707.21
2024-04-24T21:15:30.973Z,97700.29
2024-04-24T21:17:33.678Z,97701.56
2024-04-24T21:19:37.150Z,97699.71
2024-04-24T21:23:45.414Z,97704.73
2024-04-24T21:25:48.321Z,97702.75
2024-04-24T21:27:51.333Z,97701.52
2024-04-24T21:29:54.050Z,97698.75
2024-04-24T21:31:56.559Z,97699.73
2024-04-24T21:33:59.111Z,97696.84
2024-04-24T21:36:04.740Z,97697.58
2024-04-24T21:38:07.180Z,97692.82
2024-04-24T21:40:10.169Z,97696.02
2024-04-24T21:42:12.632Z,97695.58
2024-04-24T21:44:15.264Z,97694.06
2024-04-24T21:46:19.677Z,97694.02
2024-04-24T21:48:22.218Z,97702.45
2024-04-24T21:50:24.894Z,97698.92
2024-04-24T21:52:27.402Z,97695.00
2024-04-24T21:54:30.961Z,97692.48
2024-04-24T21:56:35.762Z,97687.48
2024-04-24T21:58:40.003Z,97683.55
2024-04-24T22:00:42.593Z,97686.20
2024-04-24T22:02:45.021Z,97684.67
2024-04-24T22:04:47.485Z,97682.48
2024-04-24T22:06:50.064Z,97681.23
2024-04-24T22:08:52.505Z,97680.37
2024-04-24T22:10:54.857Z,97680.57
2024-04-24T22:13:01.764Z,97680.00
2024-04-24T22:15:04.682Z,97680.38
2024-04-24T22:17:16.459Z,97678.94
2024-04-24T22:19:24.354Z,97676.10
2024-04-24T22:21:29.389Z,97679.88
2024-04-24T22:23:32.946Z,97677.52
2024-04-24T22:25:36.383Z,97677.84
2024-04-24T22:27:38.801Z,97677.10
2024-04-24T22:29:41.215Z,97676.06
2024-04-24T22:31:43.862Z,97674.31
2024-04-24T22:33:47.269Z,97673.35
2024-04-24T22:35:49.965Z,97674.19
2024-04-24T22:37:53.026Z,97676.47
2024-04-24T22:39:55.389Z,97675.55
2024-04-24T22:41:57.814Z,97678.34
2024-04-24T22:44:00.246Z,97675.45
2024-04-24T22:46:03.805Z,97671.02
2024-04-24T22:48:06.574Z,97671.89
2024-04-24T22:50:09.920Z,97676.13
2024-04-24T22:52:12.610Z,97676.66
2024-04-24T22:54:15.140Z,97670.51
2024-04-24T22:56:17.592Z,97673.58
2024-04-24T22:58:19.969Z,97663.91
2024-04-24T23:00:22.662Z,97661.27
2024-04-24T23:02:25.271Z,97669.77
2024-04-24T23:04:29.774Z,97662.69
2024-04-24T23:06:32.258Z,97660.17
2024-04-24T23:08:34.916Z,97660.33
2024-04-24T23:10:37.546Z,97658.54
2024-04-24T23:12:42.406Z,97655.77
2024-04-24T23:14:45.645Z,97654.39
2024-04-24T23:16:48.128Z,97651.95
2024-04-24T23:18:50.594Z,97649.70
2024-04-24T23:20:54.155Z,97648.64
2024-04-24T23:22:56.613Z,97650.69
2024-04-24T23:24:59.121Z,97649.39
2024-04-24T23:27:01.813Z,97647.31
2024-04-24T23:29:04.338Z,97646.23
2024-04-24T23:31:07.609Z,97643.13
2024-04-24T23:33:10.105Z,97644.44
2024-04-24T23:35:12.662Z,97645.52
2024-04-24T23:37:15.104Z,97643.74
2024-04-24T23:39:17.644Z,97643.25
2024-04-24T23:41:20.205Z,97643.08
2024-04-24T23:43:22.619Z,97638.08
2024-04-24T23:45:25.527Z,97636.02
2024-04-24T23:47:28.178Z,97637.92
2024-04-24T23:49:31.016Z,97641.23
2024-04-24T23:51:33.981Z,97641.20
2024-04-24T23:53:36.963Z,97641.91
2024-04-24T23:55:40.631Z,97639.39
2024-04-24T23:57:43.425Z,97637.44
2024-04-24T23:59:46.096Z,97639.80
